createdAt,value
2022-08-22T00:01:07.838Z,100750.30
2022-08-22T00:02:48.934Z,100771.48
2022-08-22T00:04:12.036Z,100751.50
2022-08-22T00:07:01.726Z,100753.60
2022-08-22T00:09:40.643Z,100751.11
2022-08-22T00:12:30.189Z,100750.94
2022-08-22T00:15:43.723Z,100752.89
2022-08-22T00:18:33.079Z,100746.66
2022-08-22T00:21:29.648Z,100747.85
2022-08-22T00:24:23.239Z,100749.88
2022-08-22T00:26:59.382Z,100752.60
2022-08-22T00:29:43.505Z,100760.79
2022-08-22T00:32:14.560Z,100762.48
2022-08-22T00:35:01.521Z,100762.83
2022-08-22T00:37:52.911Z,100765.51
2022-08-22T00:40:29.513Z,100765.63
2022-08-22T00:43:04.302Z,100766.11
2022-08-22T00:46:00.070Z,100770.14
2022-08-22T00:48:50.531Z,100772.98
2022-08-22T00:51:34.314Z,100775.77
2022-08-22T00:54:24.156Z,100777.66
2022-08-22T00:57:18.548Z,100777.47
2022-08-22T00:59:52.218Z,100778.48
2022-08-22T01:02:31.993Z,100780.02
2022-08-22T01:05:33.191Z,100783.13
2022-08-22T01:08:22.524Z,100783.16
2022-08-22T01:11:21.738Z,100784.52
2022-08-22T01:14:34.440Z,100787.33
2022-08-22T01:17:29.441Z,100790.10
2022-08-22T01:20:18.429Z,100793.77
2022-08-22T01:23:18.520Z,100798.34
2022-08-22T01:26:04.915Z,100802.91
2022-08-22T01:29:02.372Z,100803.07
2022-08-22T01:31:52.198Z,100803.98
2022-08-22T01:34:25.783Z,100806.65
2022-08-22T01:37:04.545Z,100809.27
2022-08-22T01:39:41.381Z,100811.23
2022-08-22T01:42:34.772Z,100809.80
2022-08-22T01:45:24.933Z,100807.48
2022-08-22T01:48:06.416Z,100806.05
2022-08-22T01:50:38.590Z,100808.54
2022-08-22T01:53:39.764Z,100807.17
2022-08-22T01:56:20.530Z,100806.33
2022-08-22T01:59:10.071Z,100807.04
2022-08-22T02:01:45.083Z,100805.48
2022-08-22T02:04:34.871Z,100805.47
2022-08-22T02:07:07.173Z,100802.14
2022-08-22T02:10:06.322Z,100804.91
2022-08-22T02:12:53.014Z,100801.74
2022-08-22T02:15:41.146Z,100802.51
2022-08-22T02:18:20.786Z,100807.52
2022-08-22T02:20:48.504Z,100807.45
2022-08-22T02:23:25.111Z,100805.84
2022-08-22T02:26:17.083Z,100807.61
2022-08-22T02:29:12.167Z,100813.48
2022-08-22T02:31:49.420Z,100811.95
2022-08-22T02:34:46.192Z,100815.27
2022-08-22T02:37:23.938Z,100811.94
2022-08-22T02:40:13.183Z,100816.30
2022-08-22T02:43:10.342Z,100812.23
2022-08-22T02:46:00.182Z,100807.81
2022-08-22T02:48:42.197Z,100808.44
2022-08-22T02:51:32.339Z,100804.27
2022-08-22T02:54:37.180Z,100797.59
2022-08-22T02:57:14.268Z,100800.06
2022-08-22T03:00:32.072Z,100799.52
2022-08-22T03:03:16.361Z,100800.22
2022-08-22T03:05:44.122Z,100798.13
2022-08-22T03:08:25.225Z,100797.69
2022-08-22T03:10:56.580Z,100792.26
2022-08-22T03:13:36.318Z,100791.77
2022-08-22T03:16:12.852Z,100788.12
2022-08-22T03:19:19.682Z,100787.36
2022-08-22T03:21:57.996Z,100786.27
2022-08-22T03:24:49.720Z,100782.64
2022-08-22T03:27:39.716Z,100779.32
2022-08-22T03:30:17.234Z,100781.55
2022-08-22T03:32:50.798Z,100778.04
2022-08-22T03:36:00.089Z,100775.90
2022-08-22T03:38:52.064Z,100778.73
2022-08-22T03:41:38.376Z,100779.30
2022-08-22T03:44:12.811Z,100777.59
2022-08-22T03:46:59.694Z,100775.97
2022-08-22T03:49:36.249Z,100779.29
2022-08-22T03:52:22.788Z,100779.29
2022-08-22T03:54:50.506Z,100785.50
2022-08-22T03:57:48.459Z,100793.08
2022-08-22T04:00:32.369Z,100802.57
2022-08-22T04:03:22.527Z,100806.77
2022-08-22T04:06:02.421Z,100808.19
2022-08-22T04:09:08.688Z,100808.58
2022-08-22T04:11:49.046Z,100811.70
2022-08-22T04:14:28.207Z,100812.56
2022-08-22T04:17:20.302Z,100812.94
2022-08-22T04:20:06.829Z,100814.47
2022-08-22T04:23:00.576Z,100815.02
2022-08-22T04:25:50.787Z,100815.39
2022-08-22T04:28:41.134Z,100815.75
2022-08-22T04:31:14.784Z,100813.63
2022-08-22T04:33:52.903Z,100816.23
2022-08-22T04:36:31.228Z,100816.25
2022-08-22T04:39:12.791Z,100815.93
2022-08-22T04:41:43.602Z,100821.02
2022-08-22T04:44:16.224Z,100821.73
2022-08-22T04:46:51.143Z,100825.96
2022-08-22T04:49:31.507Z,100819.30
2022-08-22T04:52:11.029Z,100817.84
2022-08-22T04:55:02.133Z,100818.92
2022-08-22T04:57:54.810Z,100821.52
2022-08-22T05:00:23.795Z,100820.49
2022-08-22T05:02:56.659Z,100829.98
2022-08-22T05:05:30.311Z,100829.83
2022-08-22T05:08:01.165Z,100828.63
2022-08-22T05:10:36.447Z,100833.52
2022-08-22T05:13:09.716Z,100829.48
2022-08-22T05:15:42.236Z,100832.01
2022-08-22T05:18:20.177Z,100832.35
2022-08-22T05:20:51.597Z,100836.57
2022-08-22T05:23:44.583Z,100837.63
2022-08-22T05:26:15.616Z,100837.96
2022-08-22T05:29:02.038Z,100839.73
2022-08-22T05:31:34.764Z,100840.11
2022-08-22T05:34:06.171Z,100841.67
2022-08-22T05:37:08.345Z,100843.60
2022-08-22T05:39:40.735Z,100845.41
2022-08-22T05:42:15.594Z,100847.90
2022-08-22T05:44:43.774Z,100850.36
2022-08-22T05:47:27.289Z,100852.11
2022-08-22T05:50:01.593Z,100853.54
2022-08-22T05:52:52.075Z,100849.16
2022-08-22T05:55:31.478Z,100850.88
2022-08-22T05:58:43.409Z,100850.88
2022-08-22T06:01:30.187Z,100854.77
2022-08-22T06:04:04.850Z,100857.61
2022-08-22T06:06:58.575Z,100858.80
2022-08-22T06:09:48.037Z,100863.08
2022-08-22T06:12:22.291Z,100864.48
2022-08-22T06:15:12.147Z,100867.88
2022-08-22T06:17:50.987Z,100867.90
2022-08-22T06:20:28.785Z,100869.34
2022-08-22T06:23:00.851Z,100866.34
2022-08-22T06:25:33.753Z,100857.45
2022-08-22T06:28:07.617Z,100859.23
2022-08-22T06:30:39.710Z,100860.83
2022-08-22T06:33:12.597Z,100861.95
2022-08-22T06:36:08.188Z,100864.66
2022-08-22T06:38:58.788Z,100868.50
2022-08-22T06:41:30.322Z,100865.91
2022-08-22T06:44:00.286Z,100864.20
2022-08-22T06:46:31.867Z,100860.55
2022-08-22T06:49:01.320Z,100862.69
2022-08-22T06:51:30.392Z,100865.36
2022-08-22T06:54:03.827Z,100867.48
2022-08-22T06:56:40.847Z,100868.22
2022-08-22T06:59:14.899Z,100871.42
2022-08-22T07:02:03.725Z,100873.58
2022-08-22T07:04:32.035Z,100872.73
2022-08-22T07:07:02.273Z,100869.77
2022-08-22T07:09:37.127Z,100870.84
2022-08-22T07:12:16.771Z,100870.54
2022-08-22T07:14:49.674Z,100873.93
2022-08-22T07:17:30.260Z,100876.21
2022-08-22T07:20:42.219Z,100873.23
2022-08-22T07:23:14.739Z,100869.08
2022-08-22T07:25:52.799Z,100872.97
2022-08-22T07:28:58.588Z,100873.39
2022-08-22T07:31:33.765Z,100873.23
2022-08-22T07:34:24.000Z,100869.57
2022-08-22T07:37:10.806Z,100875.19
2022-08-22T07:40:21.102Z,100877.84
2022-08-22T07:42:57.622Z,100881.92
2022-08-22T07:45:53.856Z,100877.17
2022-08-22T07:48:48.627Z,100873.85
2022-08-22T07:51:42.904Z,100874.39
2022-08-22T07:54:21.986Z,100874.02
2022-08-22T07:57:01.693Z,100872.11
2022-08-22T07:59:33.278Z,100874.23
2022-08-22T08:02:05.079Z,100875.87
2022-08-22T08:04:40.015Z,100878.86
2022-08-22T08:07:12.164Z,100882.58
2022-08-22T08:09:46.574Z,100880.29
2022-08-22T08:12:16.307Z,100882.94
2022-08-22T08:14:46.407Z,100880.15
2022-08-22T08:17:27.841Z,100883.85
2022-08-22T08:20:07.238Z,100879.83
2022-08-22T08:22:37.538Z,100888.48
2022-08-22T08:25:08.168Z,100890.95
2022-08-22T08:27:57.326Z,100893.81
2022-08-22T08:30:45.000Z,100892.96
2022-08-22T08:33:25.137Z,100892.45
2022-08-22T08:36:07.251Z,100890.87
2022-08-22T08:38:42.697Z,100890.70
2022-08-22T08:41:52.008Z,100890.53
2022-08-22T08:44:24.376Z,100893.56
2022-08-22T08:46:55.792Z,100892.33
2022-08-22T08:49:53.345Z,100891.64
2022-08-22T08:52:50.028Z,100890.58
2022-08-22T08:55:48.667Z,100881.11
2022-08-22T08:58:34.119Z,100874.64
2022-08-22T09:01:27.748Z,100872.56
2022-08-22T09:04:15.237Z,100872.45
2022-08-22T09:07:18.876Z,100870.17
2022-08-22T09:10:04.785Z,100867.54
2022-08-22T09:13:11.834Z,100864.40
2022-08-22T09:16:05.316Z,100861.27
2022-08-22T09:18:52.429Z,100864.84
2022-08-22T09:21:31.486Z,100865.58
2022-08-22T09:24:11.868Z,100866.85
2022-08-22T09:26:48.271Z,100866.52
2022-08-22T09:29:54.754Z,100864.30
2022-08-22T09:32:42.800Z,100868.92
2022-08-22T09:35:26.007Z,100871.77
2022-08-22T09:37:53.992Z,100873.90
2022-08-22T09:40:30.823Z,100875.35
2022-08-22T09:43:14.261Z,100873.83
2022-08-22T09:46:02.108Z,100870.14
2022-08-22T09:48:46.271Z,100874.42
2022-08-22T09:51:31.803Z,100873.42
2022-08-22T09:54:14.814Z,100874.84
2022-08-22T09:57:04.048Z,100876.27
2022-08-22T09:59:52.451Z,100872.96
2022-08-22T10:02:43.309Z,100873.34
2022-08-22T10:05:43.694Z,100870.75
2022-08-22T10:08:14.787Z,100872.19
2022-08-22T10:11:09.800Z,100870.80
2022-08-22T10:14:00.899Z,100871.90
2022-08-22T10:16:34.187Z,100874.23
2022-08-22T10:19:38.199Z,100869.00
2022-08-22T10:22:31.350Z,100870.80
2022-08-22T10:25:25.115Z,100865.75
2022-08-22T10:28:15.165Z,100861.55
2022-08-22T10:30:49.845Z,100868.27
2022-08-22T10:33:48.554Z,100868.38
2022-08-22T10:36:29.823Z,100868.42
2022-08-22T10:39:01.475Z,100874.25
2022-08-22T10:42:05.472Z,100876.04
2022-08-22T10:45:13.009Z,100873.54
2022-08-22T10:48:04.563Z,100873.36
2022-08-22T10:50:43.302Z,100875.25
2022-08-22T10:53:35.415Z,100875.63
2022-08-22T10:56:14.643Z,100877.77
2022-08-22T10:59:06.117Z,100875.98
2022-08-22T11:01:41.942Z,100877.54
2022-08-22T11:04:38.789Z,100876.13
2022-08-22T11:07:25.494Z,100872.77
2022-08-22T11:10:27.964Z,100871.92
2022-08-22T11:13:03.796Z,100876.52
2022-08-22T11:15:58.468Z,100875.98
2022-08-22T11:18:43.011Z,100874.92
2022-08-22T11:21:52.262Z,100875.63
2022-08-22T11:24:35.427Z,100875.80
2022-08-22T11:27:40.737Z,100882.12
2022-08-22T11:30:20.606Z,100881.80
2022-08-22T11:33:13.637Z,100884.80
2022-08-22T11:35:56.125Z,100884.13
2022-08-22T11:38:32.646Z,100884.66
2022-08-22T11:41:24.685Z,100880.06
2022-08-22T11:44:17.212Z,100882.58
2022-08-22T11:46:48.733Z,100884.13
2022-08-22T11:49:28.467Z,100885.20
2022-08-22T11:52:25.470Z,100887.58
2022-08-22T11:55:21.613Z,100888.81
2022-08-22T11:57:51.811Z,100891.30
2022-08-22T12:00:46.408Z,100892.85
2022-08-22T12:03:23.608Z,100892.98
2022-08-22T12:06:15.805Z,100894.02
2022-08-22T12:08:50.951Z,100895.15
2022-08-22T12:11:30.096Z,100898.78
2022-08-22T12:14:06.412Z,100893.06
2022-08-22T12:16:45.047Z,100888.49
2022-08-22T12:19:33.838Z,100888.45
2022-08-22T12:22:29.646Z,100885.85
2022-08-22T12:25:27.500Z,100879.88
2022-08-22T12:28:14.321Z,100883.92
2022-08-22T12:31:08.621Z,100893.36
2022-08-22T12:33:48.747Z,100890.52
2022-08-22T12:36:41.365Z,100891.66
2022-08-22T12:39:41.185Z,100889.55
2022-08-22T12:42:24.555Z,100882.60
2022-08-22T12:45:10.688Z,100879.21
2022-08-22T12:47:53.690Z,100875.48
2022-08-22T12:50:42.029Z,100865.10
2022-08-22T12:53:48.465Z,100863.69
2022-08-22T12:56:47.220Z,100863.52
2022-08-22T12:59:31.447Z,100861.95
2022-08-22T13:02:03.001Z,100862.36
2022-08-22T13:04:34.412Z,100865.23
2022-08-22T13:07:29.121Z,100867.05
2022-08-22T13:10:06.980Z,100864.28
2022-08-22T13:12:47.856Z,100863.30
2022-08-22T13:15:42.449Z,100860.72
2022-08-22T13:18:29.773Z,100862.40
2022-08-22T13:21:02.596Z,100855.92
2022-08-22T13:23:47.231Z,100848.44
2022-08-22T13:26:34.407Z,100846.54
2022-08-22T13:29:26.187Z,100848.15
2022-08-22T13:32:00.528Z,100853.09
2022-08-22T13:34:39.522Z,100851.52
2022-08-22T13:37:15.234Z,100845.90
2022-08-22T13:39:49.116Z,100843.14
2022-08-22T13:42:30.284Z,100844.41
2022-08-22T13:45:10.919Z,100846.37
2022-08-22T13:47:49.381Z,100840.58
2022-08-22T13:50:22.682Z,100842.52
2022-08-22T13:53:20.190Z,100839.34
2022-08-22T13:55:55.433Z,100838.82
2022-08-22T13:58:45.315Z,100846.25
2022-08-22T14:01:28.571Z,100845.40
2022-08-22T14:04:17.832Z,100850.00
2022-08-22T14:07:02.050Z,100847.59
2022-08-22T14:09:51.328Z,100842.14
2022-08-22T14:12:33.684Z,100841.98
2022-08-22T14:15:32.321Z,100840.02
2022-08-22T14:18:30.463Z,100839.49
2022-08-22T14:21:26.319Z,100837.38
2022-08-22T14:24:03.907Z,100839.52
2022-08-22T14:26:47.332Z,100837.45
2022-08-22T14:29:19.764Z,100837.32
2022-08-22T14:32:35.209Z,100835.73
2022-08-22T14:35:17.019Z,100837.30
2022-08-22T14:38:01.067Z,100837.31
2022-08-22T14:40:36.346Z,100835.36
2022-08-22T14:43:07.145Z,100839.04
2022-08-22T14:45:40.025Z,100837.63
2022-08-22T14:48:31.369Z,100835.67
2022-08-22T14:51:08.565Z,100834.25
2022-08-22T14:53:38.944Z,100832.30
2022-08-22T14:56:18.110Z,100832.64
2022-08-22T14:59:06.661Z,100830.67
2022-08-22T15:02:00.266Z,100831.55
2022-08-22T15:04:39.115Z,100832.08
2022-08-22T15:07:09.458Z,100830.48
2022-08-22T15:09:42.636Z,100831.20
2022-08-22T15:12:59.483Z,100829.98
2022-08-22T15:15:53.506Z,100831.06
2022-08-22T15:18:26.475Z,100834.78
2022-08-22T15:21:06.915Z,100832.14
2022-08-22T15:23:45.412Z,100831.42
2022-08-22T15:26:30.682Z,100831.95
2022-08-22T15:29:09.579Z,100833.37
2022-08-22T15:31:41.513Z,100835.67
2022-08-22T15:34:21.942Z,100834.08
2022-08-22T15:37:11.939Z,100833.20
2022-08-22T15:40:12.656Z,100832.66
2022-08-22T15:42:50.527Z,100828.27
2022-08-22T15:45:39.562Z,100825.27
2022-08-22T15:48:23.740Z,100825.27
2022-08-22T15:51:05.062Z,100823.52
2022-08-22T15:53:43.449Z,100819.98
2022-08-22T15:56:11.307Z,100824.03
2022-08-22T15:58:48.082Z,100824.91
2022-08-22T16:01:22.340Z,100823.31
2022-08-22T16:04:06.786Z,100822.95
2022-08-22T16:06:55.226Z,100821.54
2022-08-22T16:09:40.725Z,100821.19
2022-08-22T16:12:44.242Z,100818.70
2022-08-22T16:15:46.943Z,100819.41
2022-08-22T16:18:33.530Z,100819.77
2022-08-22T16:21:02.591Z,100816.58
2022-08-22T16:23:49.603Z,100815.88
2022-08-22T16:26:30.222Z,100815.86
2022-08-22T16:29:14.774Z,100814.79
2022-08-22T16:31:48.686Z,100815.68
2022-08-22T16:34:16.813Z,100815.68
2022-08-22T16:37:03.320Z,100815.86
2022-08-22T16:39:44.520Z,100817.98
2022-08-22T16:42:19.567Z,100820.09
2022-08-22T16:45:02.832Z,100821.14
2022-08-22T16:47:33.400Z,100823.26
2022-08-22T16:50:30.594Z,100822.73
2022-08-22T16:53:30.525Z,100826.61
2022-08-22T16:56:17.006Z,100823.26
2022-08-22T16:59:23.482Z,100821.14
2022-08-22T17:01:57.483Z,100823.25
2022-08-22T17:04:40.200Z,100818.66
2022-08-22T17:07:16.791Z,100821.48
2022-08-22T17:09:53.953Z,100821.83
2022-08-22T17:12:52.766Z,100818.64
2022-08-22T17:15:42.610Z,100817.22
2022-08-22T17:18:22.549Z,100820.91
2022-08-22T17:21:17.711Z,100815.75
2022-08-22T17:23:58.298Z,100813.45
2022-08-22T17:26:40.582Z,100815.18
2022-08-22T17:29:08.274Z,100819.23
2022-08-22T17:31:52.831Z,100820.12
2022-08-22T17:34:45.792Z,100820.83
2022-08-22T17:37:51.614Z,100824.16
2022-08-22T17:40:27.606Z,100825.39
2022-08-22T17:43:20.912Z,100825.91
2022-08-22T17:46:06.693Z,100825.91
2022-08-22T17:48:50.024Z,100831.02
2022-08-22T17:51:28.861Z,100835.09
2022-08-22T17:54:12.416Z,100833.66
2022-08-22T17:56:46.861Z,100832.42
2022-08-22T17:59:23.607Z,100832.61
2022-08-22T18:02:44.086Z,100831.19
2022-08-22T18:05:16.445Z,100840.34
2022-08-22T18:08:37.617Z,100832.40
2022-08-22T18:11:12.357Z,100839.45
2022-08-22T18:13:56.458Z,100840.49
2022-08-22T18:16:24.083Z,100843.85
2022-08-22T18:18:57.622Z,100843.50
2022-08-22T18:21:32.085Z,100844.38
2022-08-22T18:24:12.532Z,100837.33
2022-08-22T18:26:56.239Z,100835.73
2022-08-22T18:29:43.177Z,100843.86
2022-08-22T18:32:54.068Z,100844.91
2022-08-22T18:35:28.965Z,100847.55
2022-08-22T18:37:59.705Z,100849.83
2022-08-22T18:40:36.769Z,100848.08
2022-08-22T18:43:29.963Z,100847.72
2022-08-22T18:46:03.790Z,100847.54
2022-08-22T18:48:54.452Z,100848.23
2022-08-22T18:51:34.987Z,100851.40
2022-08-22T18:54:07.006Z,100854.55
2022-08-22T18:56:59.704Z,100855.26
2022-08-22T18:59:36.411Z,100857.03
2022-08-22T19:02:41.972Z,100859.84
2022-08-22T19:05:26.741Z,100862.14
2022-08-22T19:07:57.564Z,100864.25
2022-08-22T19:10:49.118Z,100866.72
2022-08-22T19:13:25.860Z,100865.48
2022-08-22T19:15:56.537Z,100866.54
2022-08-22T19:18:34.646Z,100863.89
2022-08-22T19:21:46.379Z,100863.89
2022-08-22T19:24:20.390Z,100858.77
2022-08-22T19:27:09.700Z,100861.78
2022-08-22T19:29:37.431Z,100866.91
2022-08-22T19:32:13.318Z,100865.70
2022-08-22T19:34:47.798Z,100864.10
2022-08-22T19:37:31.762Z,100865.88
2022-08-22T19:40:09.445Z,100866.76
2022-08-22T19:42:44.219Z,100872.76
2022-08-22T19:45:29.566Z,100873.83
2022-08-22T19:48:13.726Z,100869.23
2022-08-22T19:50:43.401Z,100865.70
2022-08-22T19:53:34.569Z,100866.06
2022-08-22T19:56:24.309Z,100870.12
2022-08-22T19:58:55.318Z,100870.48
2022-08-22T20:01:35.217Z,100873.12
2022-08-22T20:04:29.874Z,100869.78
2022-08-22T20:07:14.481Z,100870.86
2022-08-22T20:09:59.073Z,100865.57
2022-08-22T20:12:30.050Z,100863.65
2022-08-22T20:15:10.525Z,100867.19
2022-08-22T20:17:41.312Z,100860.84
2022-08-22T20:20:38.288Z,100858.55
2022-08-22T20:23:15.839Z,100857.84
2022-08-22T20:25:52.967Z,100859.79
2022-08-22T20:28:48.815Z,100855.38
2022-08-22T20:31:26.459Z,100852.55
2022-08-22T20:34:18.585Z,100855.02
2022-08-22T20:36:55.878Z,100851.13
2022-08-22T20:39:58.707Z,100856.05
2022-08-22T20:42:30.490Z,100849.36
2022-08-22T20:44:59.454Z,100852.38
2022-08-22T20:47:38.095Z,100848.31
2022-08-22T20:50:12.087Z,100847.61
2022-08-22T20:52:54.289Z,100845.69
2022-08-22T20:55:27.324Z,100843.39
2022-08-22T20:58:04.460Z,100839.70
2022-08-22T21:00:47.644Z,100840.06
2022-08-22T21:03:46.063Z,100840.76
2022-08-22T21:06:18.387Z,100837.41
2022-08-22T21:09:08.481Z,100843.05
2022-08-22T21:11:42.010Z,100844.64
2022-08-22T21:14:24.823Z,100841.82
2022-08-22T21:16:53.513Z,100841.98
2022-08-22T21:19:27.985Z,100845.68
2022-08-22T21:22:13.957Z,100842.34
2022-08-22T21:24:42.021Z,100835.64
2022-08-22T21:27:18.555Z,100834.75
2022-08-22T21:29:46.983Z,100837.58
2022-08-22T21:32:14.678Z,100831.94
2022-08-22T21:34:49.572Z,100832.27
2022-08-22T21:37:49.230Z,100825.94
2022-08-22T21:40:21.333Z,100823.30
2022-08-22T21:43:04.551Z,100822.23
2022-08-22T21:45:37.287Z,100818.52
2022-08-22T21:48:36.391Z,100823.10
2022-08-22T21:51:41.152Z,100819.04
2022-08-22T21:54:21.515Z,100822.75
2022-08-22T21:56:51.263Z,100828.23
2022-08-22T21:59:25.231Z,100828.06
2022-08-22T22:01:55.473Z,100827.52
2022-08-22T22:04:23.506Z,100823.98
2022-08-22T22:06:51.707Z,100823.45
2022-08-22T22:09:19.652Z,100827.16
2022-08-22T22:11:47.513Z,100820.44
2022-08-22T22:14:15.469Z,100819.38
2022-08-22T22:16:43.261Z,100812.30
2022-08-22T22:19:11.488Z,100810.90
2022-08-22T22:21:39.315Z,100805.58
2022-08-22T22:24:07.237Z,100799.58
2022-08-22T22:26:35.220Z,100799.06
2022-08-22T22:29:03.557Z,100797.64
2022-08-22T22:31:31.754Z,100793.74
2022-08-22T22:34:02.450Z,100794.45
2022-08-22T22:36:30.377Z,100794.63
2022-08-22T22:38:58.790Z,100793.38
2022-08-22T22:41:26.913Z,100791.27
2022-08-22T22:43:55.559Z,100791.08
2022-08-22T22:46:24.516Z,100797.08
2022-08-22T22:48:52.838Z,100801.65
2022-08-22T22:51:20.727Z,100806.95
2022-08-22T22:53:48.942Z,100807.14
2022-08-22T22:56:21.301Z,100806.95
2022-08-22T22:58:57.439Z,100807.83
2022-08-22T23:01:27.209Z,100801.45
2022-08-22T23:03:58.599Z,100804.44
2022-08-22T23:06:34.607Z,100803.20
2022-08-22T23:09:02.408Z,100807.80
2022-08-22T23:11:31.257Z,100808.49
2022-08-22T23:14:01.101Z,100805.33
2022-08-22T23:16:33.997Z,100807.61
2022-08-22T23:19:10.422Z,100809.73
2022-08-22T23:21:38.634Z,100809.73
2022-08-22T23:24:06.965Z,100808.50
2022-08-22T23:26:35.009Z,100797.38
2022-08-22T23:29:06.528Z,100796.67
2022-08-22T23:31:36.025Z,100794.54
2022-08-22T23:34:15.388Z,100796.65
2022-08-22T23:36:46.426Z,100799.98
2022-08-22T23:39:16.453Z,100796.09
2022-08-22T23:41:45.627Z,100801.03
2022-08-22T23:44:17.500Z,100801.20
2022-08-22T23:46:46.348Z,100805.63
2022-08-22T23:49:15.802Z,100803.52
2022-08-22T23:51:44.378Z,100807.77
2022-08-22T23:54:14.506Z,100807.77
2022-08-22T23:56:49.114Z,100807.95
2022-08-22T23:59:20.745Z,100808.12
